sensor_id;sensor_type;location;lat;lon;timestamp;temperature;humidity
44477;DHT22;30180;44.788;10.366;2023-04-01T00:00:49;18.10;64.80
44477;DHT22;30180;44.788;10.366;2023-04-01T00:03:17;18.00;64.70
44477;DHT22;30180;44.788;10.366;2023-04-01T00:05:46;18.10;64.80
44477;DHT22;30180;44.788;10.366;2023-04-01T00:08:16;18.10;64.80
44477;DHT22;30180;44.788;10.366;2023-04-01T00:10:44;18.10;64.80
44477;DHT22;30180;44.788;10.366;2023-04-01T00:13:13;18.00;64.70
44477;DHT22;30180;44.788;10.366;2023-04-01T00:15:42;18.10;64.80
44477;DHT22;30180;44.788;10.366;2023-04-01T00:18:11;18.10;64.80
44477;DHT22;30180;44.788;10.366;2023-04-01T00:20:43;18.00;64.70
44477;DHT22;30180;44.788;10.366;2023-04-01T00:23:12;18.10;64.80
44477;DHT22;30180;44.788;10.366;2023-04-01T00:25:42;18.00;64.70
44477;DHT22;30180;44.788;10.366;2023-04-01T00:28:12;18.00;64.70
44477;DHT22;30180;44.788;10.366;2023-04-01T00:30:40;18.00;64.70
44477;DHT22;30180;44.788;10.366;2023-04-01T00:33:08;18.10;64.80
44477;DHT22;30180;44.788;10.366;2023-04-01T00:35:37;18.00;64.80
44477;DHT22;30180;44.788;10.366;2023-04-01T00:38:05;18.00;64.70
44477;DHT22;30180;44.788;10.366;2023-04-01T00:40:35;18.10;64.80
44477;DHT22;30180;44.788;10.366;2023-04-01T00:43:11;18.10;64.80
44477;DHT22;30180;44.788;10.366;2023-04-01T00:45:42;18.00;64.70
44477;DHT22;30180;44.788;10.366;2023-04-01T00:48:13;18.10;64.80
44477;DHT22;30180;44.788;10.366;2023-04-01T00:50:45;18.10;64.80
44477;DHT22;30180;44.788;10.366;2023-04-01T00:53:16;18.00;64.70
44477;DHT22;30180;44.788;10.366;2023-04-01T00:55:50;18.00;64.70
44477;DHT22;30180;44.788;10.366;2023-04-01T00:58:21;18.00;64.70
44477;DHT22;30180;44.788;10.366;2023-04-01T01:00:52;18.00;64.70
44477;DHT22;30180;44.788;10.366;2023-04-01T01:03:20;18.00;64.70
44477;DHT22;30180;44.788;10.366;2023-04-01T01:06:08;18.00;64.80
44477;DHT22;30180;44.788;10.366;2023-04-01T01:08:52;18.00;64.70
44477;DHT22;30180;44.788;10.366;2023-04-01T01:11:31;18.00;64.70
44477;DHT22;30180;44.788;10.366;2023-04-01T01:14:19;18.00;64.70
44477;DHT22;30180;44.788;10.366;2023-04-01T01:16:56;18.00;64.70
44477;DHT22;30180;44.788;10.366;2023-04-01T01:22:39;18.00;64.70
44477;DHT22;30180;44.788;10.366;2023-04-01T01:25:29;18.00;64.70
44477;DHT22;30180;44.788;10.366;2023-04-01T01:28:11;18.00;64.70
44477;DHT22;30180;44.788;10.366;2023-04-01T01:30:48;18.00;64.70
44477;DHT22;30180;44.788;10.366;2023-04-01T01:33:32;18.00;64.70
44477;DHT22;30180;44.788;10.366;2023-04-01T01:36:04;18.00;64.70
44477;DHT22;30180;44.788;10.366;2023-04-01T01:38:35;18.00;64.70
44477;DHT22;30180;44.788;10.366;2023-04-01T01:41:06;18.00;64.70
44477;DHT22;30180;44.788;10.366;2023-04-01T01:43:39;18.00;64.70
44477;DHT22;30180;44.788;10.366;2023-04-01T01:46:12;18.00;64.70
44477;DHT22;30180;44.788;10.366;2023-04-01T01:48:43;18.00;64.70
44477;DHT22;30180;44.788;10.366;2023-04-01T01:51:14;18.00;64.70
44477;DHT22;30180;44.788;10.366;2023-04-01T01:53:42;18.00;64.70
44477;DHT22;30180;44.788;10.366;2023-04-01T01:56:11;18.00;64.70
44477;DHT22;30180;44.788;10.366;2023-04-01T01:58:43;18.00;64.70
44477;DHT22;30180;44.788;10.366;2023-04-01T02:01:16;18.00;64.70
44477;DHT22;30180;44.788;10.366;2023-04-01T02:03:45;18.00;64.70
44477;DHT22;30180;44.788;10.366;2023-04-01T02:06:20;18.00;64.70
44477;DHT22;30180;44.788;10.366;2023-04-01T02:08:51;18.00;64.70
44477;DHT22;30180;44.788;10.366;2023-04-01T02:11:26;18.00;64.70
44477;DHT22;30180;44.788;10.366;2023-04-01T02:14:00;18.00;64.70
44477;DHT22;30180;44.788;10.366;2023-04-01T02:16:38;18.00;64.70
44477;DHT22;30180;44.788;10.366;2023-04-01T02:19:09;18.00;64.70
44477;DHT22;30180;44.788;10.366;2023-04-01T02:21:41;18.00;64.70
44477;DHT22;30180;44.788;10.366;2023-04-01T02:24:12;18.00;64.70
44477;DHT22;30180;44.788;10.366;2023-04-01T02:26:41;18.00;64.70
44477;DHT22;30180;44.788;10.366;2023-04-01T02:29:11;18.00;64.70
44477;DHT22;30180;44.788;10.366;2023-04-01T02:31:40;18.00;64.70
44477;DHT22;30180;44.788;10.366;2023-04-01T02:34:09;18.00;64.70
44477;DHT22;30180;44.788;10.366;2023-04-01T02:36:39;18.00;64.70
44477;DHT22;30180;44.788;10.366;2023-04-01T02:39:08;18.00;64.70
44477;DHT22;30180;44.788;10.366;2023-04-01T02:41:39;18.00;64.70
44477;DHT22;30180;44.788;10.366;2023-04-01T02:44:08;18.00;64.70
44477;DHT22;30180;44.788;10.366;2023-04-01T02:46:36;18.00;64.80
44477;DHT22;30180;44.788;10.366;2023-04-01T02:49:05;17.90;64.60
44477;DHT22;30180;44.788;10.366;2023-04-01T02:51:33;18.00;64.70
44477;DHT22;30180;44.788;10.366;2023-04-01T02:54:03;18.00;64.70
44477;DHT22;30180;44.788;10.366;2023-04-01T02:56:32;17.90;64.60
44477;DHT22;30180;44.788;10.366;2023-04-01T02:59:00;18.00;64.70
44477;DHT22;30180;44.788;10.366;2023-04-01T03:01:28;18.00;64.70
44477;DHT22;30180;44.788;10.366;2023-04-01T03:03:57;18.00;64.70
44477;DHT22;30180;44.788;10.366;2023-04-01T03:06:25;18.00;64.70
44477;DHT22;30180;44.788;10.366;2023-04-01T03:08:53;17.90;64.60
44477;DHT22;30180;44.788;10.366;2023-04-01T03:11:23;18.00;64.70
44477;DHT22;30180;44.788;10.366;2023-04-01T03:13:52;18.00;64.70
44477;DHT22;30180;44.788;10.366;2023-04-01T03:16:20;18.00;64.70
44477;DHT22;30180;44.788;10.366;2023-04-01T03:18:49;18.00;64.70
44477;DHT22;30180;44.788;10.366;2023-04-01T03:21:20;18.00;64.70
44477;DHT22;30180;44.788;10.366;2023-04-01T03:23:49;17.90;64.60
44477;DHT22;30180;44.788;10.366;2023-04-01T03:26:18;18.00;64.90
44477;DHT22;30180;44.788;10.366;2023-04-01T03:28:48;18.00;64.70
44477;DHT22;30180;44.788;10.366;2023-04-01T03:31:16;17.90;64.70
44477;DHT22;30180;44.788;10.366;2023-04-01T03:33:45;18.00;64.80
44477;DHT22;30180;44.788;10.366;2023-04-01T03:36:14;18.00;64.80
44477;DHT22;30180;44.788;10.366;2023-04-01T03:38:42;18.00;64.80
44477;DHT22;30180;44.788;10.366;2023-04-01T03:41:12;18.00;64.80
44477;DHT22;30180;44.788;10.366;2023-04-01T03:43:41;18.00;64.80
44477;DHT22;30180;44.788;10.366;2023-04-01T03:46:11;18.00;64.80
44477;DHT22;30180;44.788;10.366;2023-04-01T03:48:39;18.10;64.90
44477;DHT22;30180;44.788;10.366;2023-04-01T03:51:08;18.10;64.90
44477;DHT22;30180;44.788;10.366;2023-04-01T03:53:36;18.00;64.90
44477;DHT22;30180;44.788;10.366;2023-04-01T03:56:05;18.10;64.90
44477;DHT22;30180;44.788;10.366;2023-04-01T03:58:34;18.10;64.90
44477;DHT22;30180;44.788;10.366;2023-04-01T04:01:03;18.10;64.90
44477;DHT22;30180;44.788;10.366;2023-04-01T04:03:32;18.10;64.90
44477;DHT22;30180;44.788;10.366;2023-04-01T04:06:01;18.20;65.00
44477;DHT22;30180;44.788;10.366;2023-04-01T04:08:29;18.10;64.90
44477;DHT22;30180;44.788;10.366;2023-04-01T04:10:57;18.20;65.00
44477;DHT22;30180;44.788;10.366;2023-04-01T04:13:25;18.20;65.00
44477;DHT22;30180;44.788;10.366;2023-04-01T04:15:54;18.20;65.00
44477;DHT22;30180;44.788;10.366;2023-04-01T04:18:22;18.20;65.00
44477;DHT22;30180;44.788;10.366;2023-04-01T04:20:51;18.20;64.90
44477;DHT22;30180;44.788;10.366;2023-04-01T04:23:20;18.20;64.90
44477;DHT22;30180;44.788;10.366;2023-04-01T04:25:56;18.20;64.90
44477;DHT22;30180;44.788;10.366;2023-04-01T04:28:25;18.20;64.90
44477;DHT22;30180;44.788;10.366;2023-04-01T04:30:54;18.20;64.90
44477;DHT22;30180;44.788;10.366;2023-04-01T04:33:23;18.20;64.90
44477;DHT22;30180;44.788;10.366;2023-04-01T04:35:55;18.20;64.90
44477;DHT22;30180;44.788;10.366;2023-04-01T04:38:24;18.20;64.90
44477;DHT22;30180;44.788;10.366;2023-04-01T04:40:52;18.30;64.90
44477;DHT22;30180;44.788;10.366;2023-04-01T04:43:21;18.20;64.90
44477;DHT22;30180;44.788;10.366;2023-04-01T04:45:49;18.20;64.80
44477;DHT22;30180;44.788;10.366;2023-04-01T04:48:18;18.20;64.80
44477;DHT22;30180;44.788;10.366;2023-04-01T04:50:48;18.20;64.80
44477;DHT22;30180;44.788;10.366;2023-04-01T04:53:19;18.30;64.90
44477;DHT22;30180;44.788;10.366;2023-04-01T04:55:49;18.20;64.80
44477;DHT22;30180;44.788;10.366;2023-04-01T04:58:17;18.20;64.80
44477;DHT22;30180;44.788;10.366;2023-04-01T05:00:46;18.20;64.80
44477;DHT22;30180;44.788;10.366;2023-04-01T05:03:14;18.20;65.40
44477;DHT22;30180;44.788;10.366;2023-04-01T05:05:49;18.20;64.80
44477;DHT22;30180;44.788;10.366;2023-04-01T05:08:19;18.20;64.80
44477;DHT22;30180;44.788;10.366;2023-04-01T05:10:47;18.20;64.80
44477;DHT22;30180;44.788;10.366;2023-04-01T05:13:15;18.20;64.80
44477;DHT22;30180;44.788;10.366;2023-04-01T05:15:43;18.20;64.70
44477;DHT22;30180;44.788;10.366;2023-04-01T05:18:12;18.20;64.70
44477;DHT22;30180;44.788;10.366;2023-04-01T05:20:46;18.30;64.80
44477;DHT22;30180;44.788;10.366;2023-04-01T05:23:14;18.20;64.70
44477;DHT22;30180;44.788;10.366;2023-04-01T05:25:44;18.30;64.80
44477;DHT22;30180;44.788;10.366;2023-04-01T05:28:13;18.20;64.70
44477;DHT22;30180;44.788;10.366;2023-04-01T05:30:42;18.20;64.70
44477;DHT22;30180;44.788;10.366;2023-04-01T05:33:12;18.30;64.80
44477;DHT22;30180;44.788;10.366;2023-04-01T05:35:40;18.20;64.70
44477;DHT22;30180;44.788;10.366;2023-04-01T05:38:09;18.20;64.70
44477;DHT22;30180;44.788;10.366;2023-04-01T05:40:37;18.20;64.70
44477;DHT22;30180;44.788;10.366;2023-04-01T05:43:06;18.30;64.80
44477;DHT22;30180;44.788;10.366;2023-04-01T05:45:35;18.20;64.70
44477;DHT22;30180;44.788;10.366;2023-04-01T05:48:03;18.20;64.70
44477;DHT22;30180;44.788;10.366;2023-04-01T05:50:32;18.20;64.70
44477;DHT22;30180;44.788;10.366;2023-04-01T05:53:00;18.20;64.70
44477;DHT22;30180;44.788;10.366;2023-04-01T05:55:28;18.20;64.70
44477;DHT22;30180;44.788;10.366;2023-04-01T05:57:57;18.20;64.70
44477;DHT22;30180;44.788;10.366;2023-04-01T06:00:26;18.20;64.70
44477;DHT22;30180;44.788;10.366;2023-04-01T06:02:55;18.20;64.70
44477;DHT22;30180;44.788;10.366;2023-04-01T06:05:27;18.20;64.70
44477;DHT22;30180;44.788;10.366;2023-04-01T06:07:59;18.20;64.60
44477;DHT22;30180;44.788;10.366;2023-04-01T06:10:37;18.20;64.60
44477;DHT22;30180;44.788;10.366;2023-04-01T06:13:15;18.20;65.30
44477;DHT22;30180;44.788;10.366;2023-04-01T06:15:51;18.20;64.60
44477;DHT22;30180;44.788;10.366;2023-04-01T06:18:45;18.20;64.60
44477;DHT22;30180;44.788;10.366;2023-04-01T06:21:37;18.20;64.60
44477;DHT22;30180;44.788;10.366;2023-04-01T06:24:21;18.20;64.60
44477;DHT22;30180;44.788;10.366;2023-04-01T06:26:59;18.20;64.60
44477;DHT22;30180;44.788;10.366;2023-04-01T06:29:58;18.20;64.60
44477;DHT22;30180;44.788;10.366;2023-04-01T06:32:49;18.20;64.60
44477;DHT22;30180;44.788;10.366;2023-04-01T06:35:31;18.20;64.60
44477;DHT22;30180;44.788;10.366;2023-04-01T06:38:14;18.20;64.60
44477;DHT22;30180;44.788;10.366;2023-04-01T06:40:57;18.20;64.60
44477;DHT22;30180;44.788;10.366;2023-04-01T06:43:37;18.10;64.50
44477;DHT22;30180;44.788;10.366;2023-04-01T06:46:14;18.20;64.60
44477;DHT22;30180;44.788;10.366;2023-04-01T06:49:01;18.20;64.60
44477;DHT22;30180;44.788;10.366;2023-04-01T06:51:38;18.20;64.60
44477;DHT22;30180;44.788;10.366;2023-04-01T06:54:11;18.20;64.60
44477;DHT22;30180;44.788;10.366;2023-04-01T06:56:44;18.10;64.50
44477;DHT22;30180;44.788;10.366;2023-04-01T06:59:16;18.10;64.50
44477;DHT22;30180;44.788;10.366;2023-04-01T07:01:47;18.10;64.50
44477;DHT22;30180;44.788;10.366;2023-04-01T07:04:22;18.20;64.60
44477;DHT22;30180;44.788;10.366;2023-04-01T07:06:55;18.10;64.60
44477;DHT22;30180;44.788;10.366;2023-04-01T07:09:26;18.20;64.60
44477;DHT22;30180;44.788;10.366;2023-04-01T07:12:00;18.20;64.60
44477;DHT22;30180;44.788;10.366;2023-04-01T07:14:32;18.10;64.50
44477;DHT22;30180;44.788;10.366;2023-04-01T07:17:04;18.10;64.50
44477;DHT22;30180;44.788;10.366;2023-04-01T07:19:41;18.10;64.50
44477;DHT22;30180;44.788;10.366;2023-04-01T07:22:22;18.10;64.50
44477;DHT22;30180;44.788;10.366;2023-04-01T07:24:51;18.10;64.50
44477;DHT22;30180;44.788;10.366;2023-04-01T07:27:20;18.10;64.50
44477;DHT22;30180;44.788;10.366;2023-04-01T07:29:49;18.10;64.50
44477;DHT22;30180;44.788;10.366;2023-04-01T07:32:22;18.10;64.50
44477;DHT22;30180;44.788;10.366;2023-04-01T07:35:04;18.10;64.50
44477;DHT22;30180;44.788;10.366;2023-04-01T07:37:42;18.10;64.50
44477;DHT22;30180;44.788;10.366;2023-04-01T07:40:21;18.10;64.50
44477;DHT22;30180;44.788;10.366;2023-04-01T07:43:03;18.10;64.50
44477;DHT22;30180;44.788;10.366;2023-04-01T07:45:38;18.10;64.50
44477;DHT22;30180;44.788;10.366;2023-04-01T07:48:19;18.10;64.50
44477;DHT22;30180;44.788;10.366;2023-04-01T07:50:56;18.10;64.50
44477;DHT22;30180;44.788;10.366;2023-04-01T07:53:33;18.10;64.50
44477;DHT22;30180;44.788;10.366;2023-04-01T07:56:07;18.10;64.50
44477;DHT22;30180;44.788;10.366;2023-04-01T07:58:47;18.10;64.50
44477;DHT22;30180;44.788;10.366;2023-04-01T08:01:23;18.10;64.50
44477;DHT22;30180;44.788;10.366;2023-04-01T08:04:10;18.10;64.50
44477;DHT22;30180;44.788;10.366;2023-04-01T08:06:46;18.10;64.50
44477;DHT22;30180;44.788;10.366;2023-04-01T08:09:26;18.00;64.40
44477;DHT22;30180;44.788;10.366;2023-04-01T08:12:07;18.10;64.50
44477;DHT22;30180;44.788;10.366;2023-04-01T08:14:47;18.00;64.50
44477;DHT22;30180;44.788;10.366;2023-04-01T08:17:19;18.10;64.50
44477;DHT22;30180;44.788;10.366;2023-04-01T08:19:57;18.00;64.40
44477;DHT22;30180;44.788;10.366;2023-04-01T08:22:34;18.00;64.40
44477;DHT22;30180;44.788;10.366;2023-04-01T08:25:06;18.00;64.50
44477;DHT22;30180;44.788;10.366;2023-04-01T08:27:41;18.00;64.50
44477;DHT22;30180;44.788;10.366;2023-04-01T08:30:17;18.00;64.50
44477;DHT22;30180;44.788;10.366;2023-04-01T08:32:49;18.10;64.60
44477;DHT22;30180;44.788;10.366;2023-04-01T08:35:26;18.10;64.60
44477;DHT22;30180;44.788;10.366;2023-04-01T08:38:05;18.10;64.60
44477;DHT22;30180;44.788;10.366;2023-04-01T08:40:59;18.10;64.60
44477;DHT22;30180;44.788;10.366;2023-04-01T08:43:55;18.10;64.60
44477;DHT22;30180;44.788;10.366;2023-04-01T08:46:47;18.10;64.60
44477;DHT22;30180;44.788;10.366;2023-04-01T08:49:42;18.10;64.60
44477;DHT22;30180;44.788;10.366;2023-04-01T08:52:33;18.10;64.60
44477;DHT22;30180;44.788;10.366;2023-04-01T08:55:40;18.10;64.60
44477;DHT22;30180;44.788;10.366;2023-04-01T08:58:37;18.10;64.60
44477;DHT22;30180;44.788;10.366;2023-04-01T09:01:16;18.10;64.60
44477;DHT22;30180;44.788;10.366;2023-04-01T09:04:17;18.20;64.60
44477;DHT22;30180;44.788;10.366;2023-04-01T09:07:04;18.20;64.60
44477;DHT22;30180;44.788;10.366;2023-04-01T09:13:27;18.20;64.60
44477;DHT22;30180;44.788;10.366;2023-04-01T09:16:13;18.10;64.50
44477;DHT22;30180;44.788;10.366;2023-04-01T09:18:56;18.10;64.50
44477;DHT22;30180;44.788;10.366;2023-04-01T09:24:40;18.10;64.50
44477;DHT22;30180;44.788;10.366;2023-04-01T09:27:17;18.10;64.50
44477;DHT22;30180;44.788;10.366;2023-04-01T09:30:10;18.10;64.60
44477;DHT22;30180;44.788;10.366;2023-04-01T09:33:17;18.10;64.60
44477;DHT22;30180;44.788;10.366;2023-04-01T09:36:01;18.10;64.50
44477;DHT22;30180;44.788;10.366;2023-04-01T09:38:40;18.10;64.60
44477;DHT22;30180;44.788;10.366;2023-04-01T09:41:18;18.00;64.50
44477;DHT22;30180;44.788;10.366;2023-04-01T09:44:00;18.00;64.50
44477;DHT22;30180;44.788;10.366;2023-04-01T09:46:40;18.10;64.60
44477;DHT22;30180;44.788;10.366;2023-04-01T09:49:43;18.00;64.50
44477;DHT22;30180;44.788;10.366;2023-04-01T09:52:24;18.00;64.50
44477;DHT22;30180;44.788;10.366;2023-04-01T09:55:06;18.10;64.60
44477;DHT22;30180;44.788;10.366;2023-04-01T10:04:43;18.00;64.50
44477;DHT22;30180;44.788;10.366;2023-04-01T10:10:54;18.00;64.50
44477;DHT22;30180;44.788;10.366;2023-04-01T10:13:49;18.00;64.50
44477;DHT22;30180;44.788;10.366;2023-04-01T10:16:52;18.00;64.50
44477;DHT22;30180;44.788;10.366;2023-04-01T10:20:03;18.00;64.50
44477;DHT22;30180;44.788;10.366;2023-04-01T10:26:06;18.00;64.60
44477;DHT22;30180;44.788;10.366;2023-04-01T10:31:53;18.00;64.50
44477;DHT22;30180;44.788;10.366;2023-04-01T10:37:39;17.90;64.50
44477;DHT22;30180;44.788;10.366;2023-04-01T10:40:36;18.00;64.50
44477;DHT22;30180;44.788;10.366;2023-04-01T10:46:35;18.00;64.50
44477;DHT22;30180;44.788;10.366;2023-04-01T10:49:43;18.00;64.60
44477;DHT22;30180;44.788;10.366;2023-04-01T10:52:54;17.90;64.50
44477;DHT22;30180;44.788;10.366;2023-04-01T11:08:59;17.90;64.50
44477;DHT22;30180;44.788;10.366;2023-04-01T11:21:22;17.90;64.60
44477;DHT22;30180;44.788;10.366;2023-04-01T11:24:11;17.90;64.60
44477;DHT22;30180;44.788;10.366;2023-04-01T11:26:52;17.90;64.60
44477;DHT22;30180;44.788;10.366;2023-04-01T11:29:38;17.90;64.60
44477;DHT22;30180;44.788;10.366;2023-04-01T11:32:38;17.90;64.60
44477;DHT22;30180;44.788;10.366;2023-04-01T11:41:15;17.90;64.60
44477;DHT22;30180;44.788;10.366;2023-04-01T11:44:01;17.80;64.50
44477;DHT22;30180;44.788;10.366;2023-04-01T11:46:42;17.90;64.60
44477;DHT22;30180;44.788;10.366;2023-04-01T11:49:29;17.90;64.60
44477;DHT22;30180;44.788;10.366;2023-04-01T11:52:17;17.90;64.60
44477;DHT22;30180;44.788;10.366;2023-04-01T11:55:01;17.90;64.60
44477;DHT22;30180;44.788;10.366;2023-04-01T11:58:03;17.90;64.60
44477;DHT22;30180;44.788;10.366;2023-04-01T12:00:48;17.80;64.60
44477;DHT22;30180;44.788;10.366;2023-04-01T12:03:39;17.80;64.60
44477;DHT22;30180;44.788;10.366;2023-04-01T12:06:15;17.90;64.60
44477;DHT22;30180;44.788;10.366;2023-04-01T12:08:53;17.90;64.60
44477;DHT22;30180;44.788;10.366;2023-04-01T12:11:29;17.80;64.60
44477;DHT22;30180;44.788;10.366;2023-04-01T12:14:11;17.90;64.70
44477;DHT22;30180;44.788;10.366;2023-04-01T12:16:57;17.80;64.60
44477;DHT22;30180;44.788;10.366;2023-04-01T12:19:34;17.90;64.70
44477;DHT22;30180;44.788;10.366;2023-04-01T12:22:21;17.90;64.70
44477;DHT22;30180;44.788;10.366;2023-04-01T12:24:58;17.80;64.60
44477;DHT22;30180;44.788;10.366;2023-04-01T12:27:44;17.90;64.60
44477;DHT22;30180;44.788;10.366;2023-04-01T12:30:50;17.90;64.60
44477;DHT22;30180;44.788;10.366;2023-04-01T12:33:41;17.90;64.60
44477;DHT22;30180;44.788;10.366;2023-04-01T12:36:19;17.90;64.60
44477;DHT22;30180;44.788;10.366;2023-04-01T12:39:05;17.90;64.70
44477;DHT22;30180;44.788;10.366;2023-04-01T12:41:45;17.80;64.60
44477;DHT22;30180;44.788;10.366;2023-04-01T12:44:29;17.90;64.70
44477;DHT22;30180;44.788;10.366;2023-04-01T12:47:24;17.90;64.70
44477;DHT22;30180;44.788;10.366;2023-04-01T12:53:15;17.80;64.60
44477;DHT22;30180;44.788;10.366;2023-04-01T12:56:00;17.80;64.60
44477;DHT22;30180;44.788;10.366;2023-04-01T12:58:52;17.80;64.60
44477;DHT22;30180;44.788;10.366;2023-04-01T13:01:40;17.80;64.60
44477;DHT22;30180;44.788;10.366;2023-04-01T13:07:56;17.80;64.60
44477;DHT22;30180;44.788;10.366;2023-04-01T13:10:43;17.80;64.70
44477;DHT22;30180;44.788;10.366;2023-04-01T13:13:29;17.80;64.60
44477;DHT22;30180;44.788;10.366;2023-04-01T13:16:05;17.80;64.60
44477;DHT22;30180;44.788;10.366;2023-04-01T13:18:39;17.80;64.70
44477;DHT22;30180;44.788;10.366;2023-04-01T13:21:18;17.80;64.60
44477;DHT22;30180;44.788;10.366;2023-04-01T13:23:57;17.80;64.60
44477;DHT22;30180;44.788;10.366;2023-04-01T13:26:36;17.80;64.70
44477;DHT22;30180;44.788;10.366;2023-04-01T13:29:11;17.80;64.70
44477;DHT22;30180;44.788;10.366;2023-04-01T13:31:51;17.80;64.70
44477;DHT22;30180;44.788;10.366;2023-04-01T13:34:35;17.80;64.70
44477;DHT22;30180;44.788;10.366;2023-04-01T13:37:24;17.80;64.70
44477;DHT22;30180;44.788;10.366;2023-04-01T13:40:04;17.80;64.70
44477;DHT22;30180;44.788;10.366;2023-04-01T13:42:43;17.80;64.60
44477;DHT22;30180;44.788;10.366;2023-04-01T13:45:16;17.80;64.60
44477;DHT22;30180;44.788;10.366;2023-04-01T13:48:12;17.80;64.60
44477;DHT22;30180;44.788;10.366;2023-04-01T13:57:14;17.80;64.70
44477;DHT22;30180;44.788;10.366;2023-04-01T14:00:10;17.80;64.60
44477;DHT22;30180;44.788;10.366;2023-04-01T14:02:56;17.80;64.70
44477;DHT22;30180;44.788;10.366;2023-04-01T14:05:47;17.80;64.70
44477;DHT22;30180;44.788;10.366;2023-04-01T14:08:29;17.80;64.70
44477;DHT22;30180;44.788;10.366;2023-04-01T14:11:11;17.80;64.70
44477;DHT22;30180;44.788;10.366;2023-04-01T14:13:47;17.80;64.70
44477;DHT22;30180;44.788;10.366;2023-04-01T14:16:35;17.70;64.60
44477;DHT22;30180;44.788;10.366;2023-04-01T14:19:22;17.80;64.70
44477;DHT22;30180;44.788;10.366;2023-04-01T14:22:03;17.80;64.70
44477;DHT22;30180;44.788;10.366;2023-04-01T14:24:45;17.70;64.60
44477;DHT22;30180;44.788;10.366;2023-04-01T14:27:41;17.80;64.70
44477;DHT22;30180;44.788;10.366;2023-04-01T14:30:30;17.70;64.60
44477;DHT22;30180;44.788;10.366;2023-04-01T14:33:14;17.80;64.70
44477;DHT22;30180;44.788;10.366;2023-04-01T14:35:50;17.80;64.70
44477;DHT22;30180;44.788;10.366;2023-04-01T14:38:28;17.70;64.60
44477;DHT22;30180;44.788;10.366;2023-04-01T14:41:06;17.80;64.70
44477;DHT22;30180;44.788;10.366;2023-04-01T14:44:18;17.80;64.70
44477;DHT22;30180;44.788;10.366;2023-04-01T14:47:08;17.80;64.70
44477;DHT22;30180;44.788;10.366;2023-04-01T14:49:41;17.80;64.70
44477;DHT22;30180;44.788;10.366;2023-04-01T14:52:14;17.80;64.70
44477;DHT22;30180;44.788;10.366;2023-04-01T14:54:44;17.80;64.80
44477;DHT22;30180;44.788;10.366;2023-04-01T14:57:15;17.80;64.80
44477;DHT22;30180;44.788;10.366;2023-04-01T14:59:51;17.70;64.70
44477;DHT22;30180;44.788;10.366;2023-04-01T15:02:41;17.80;64.70
44477;DHT22;30180;44.788;10.366;2023-04-01T15:05:16;17.70;64.70
44477;DHT22;30180;44.788;10.366;2023-04-01T15:08:14;17.80;64.80
44477;DHT22;30180;44.788;10.366;2023-04-01T15:10:55;17.80;64.70
44477;DHT22;30180;44.788;10.366;2023-04-01T15:13:43;17.80;64.70
44477;DHT22;30180;44.788;10.366;2023-04-01T15:16:24;17.80;64.70
44477;DHT22;30180;44.788;10.366;2023-04-01T15:19:00;17.80;64.70
44477;DHT22;30180;44.788;10.366;2023-04-01T15:21:44;17.80;64.80
44477;DHT22;30180;44.788;10.366;2023-04-01T15:24:21;17.80;64.80
44477;DHT22;30180;44.788;10.366;2023-04-01T15:27:16;17.80;64.70
44477;DHT22;30180;44.788;10.366;2023-04-01T15:30:00;17.80;64.80
44477;DHT22;30180;44.788;10.366;2023-04-01T15:32:43;17.80;64.80
44477;DHT22;30180;44.788;10.366;2023-04-01T15:35:21;17.80;64.70
44477;DHT22;30180;44.788;10.366;2023-04-01T15:37:55;17.80;64.80
44477;DHT22;30180;44.788;10.366;2023-04-01T15:40:29;17.80;64.80
44477;DHT22;30180;44.788;10.366;2023-04-01T15:43:06;17.80;64.80
44477;DHT22;30180;44.788;10.366;2023-04-01T15:45:45;17.80;64.80
44477;DHT22;30180;44.788;10.366;2023-04-01T15:48:37;17.80;64.80
44477;DHT22;30180;44.788;10.366;2023-04-01T15:51:20;17.80;64.80
44477;DHT22;30180;44.788;10.366;2023-04-01T15:54:18;17.80;64.80
44477;DHT22;30180;44.788;10.366;2023-04-01T15:57:03;17.80;64.80
44477;DHT22;30180;44.788;10.366;2023-04-01T15:59:52;17.80;64.80
44477;DHT22;30180;44.788;10.366;2023-04-01T16:02:28;17.80;64.80
44477;DHT22;30180;44.788;10.366;2023-04-01T16:05:05;17.80;64.80
44477;DHT22;30180;44.788;10.366;2023-04-01T16:07:51;17.80;64.80
44477;DHT22;30180;44.788;10.366;2023-04-01T16:13:24;17.80;64.80
44477;DHT22;30180;44.788;10.366;2023-04-01T16:16:04;17.80;64.80
44477;DHT22;30180;44.788;10.366;2023-04-01T16:18:48;17.80;64.80
44477;DHT22;30180;44.788;10.366;2023-04-01T16:21:35;17.90;64.80
44477;DHT22;30180;44.788;10.366;2023-04-01T16:24:13;17.80;64.80
44477;DHT22;30180;44.788;10.366;2023-04-01T16:26:50;17.90;64.80
44477;DHT22;30180;44.788;10.366;2023-04-01T16:29:27;17.80;64.80
44477;DHT22;30180;44.788;10.366;2023-04-01T16:32:08;17.80;64.80
44477;DHT22;30180;44.788;10.366;2023-04-01T16:34:43;17.80;64.80
44477;DHT22;30180;44.788;10.366;2023-04-01T16:37:16;17.80;64.70
44477;DHT22;30180;44.788;10.366;2023-04-01T16:39:52;17.80;64.80
44477;DHT22;30180;44.788;10.366;2023-04-01T16:42:38;17.80;64.80
44477;DHT22;30180;44.788;10.366;2023-04-01T16:45:19;17.80;64.80
44477;DHT22;30180;44.788;10.366;2023-04-01T16:47:55;17.80;64.80
44477;DHT22;30180;44.788;10.366;2023-04-01T16:50:26;17.80;64.80
44477;DHT22;30180;44.788;10.366;2023-04-01T16:53:07;17.90;64.80
44477;DHT22;30180;44.788;10.366;2023-04-01T16:55:49;17.80;64.80
44477;DHT22;30180;44.788;10.366;2023-04-01T16:58:23;17.80;64.80
44477;DHT22;30180;44.788;10.366;2023-04-01T17:00:58;17.80;64.80
44477;DHT22;30180;44.788;10.366;2023-04-01T17:03:32;17.80;64.80
44477;DHT22;30180;44.788;10.366;2023-04-01T17:06:17;17.90;64.90
44477;DHT22;30180;44.788;10.366;2023-04-01T17:11:52;17.90;64.90
44477;DHT22;30180;44.788;10.366;2023-04-01T17:14:28;17.90;64.90
44477;DHT22;30180;44.788;10.366;2023-04-01T17:17:11;17.90;65.00
44477;DHT22;30180;44.788;10.366;2023-04-01T17:20:17;17.80;64.90
44477;DHT22;30180;44.788;10.366;2023-04-01T17:22:54;17.90;65.00
44477;DHT22;30180;44.788;10.366;2023-04-01T17:25:36;17.90;65.00
44477;DHT22;30180;44.788;10.366;2023-04-01T17:28:15;17.90;65.00
44477;DHT22;30180;44.788;10.366;2023-04-01T17:30:53;17.90;65.00
44477;DHT22;30180;44.788;10.366;2023-04-01T17:36:25;18.00;65.00
44477;DHT22;30180;44.788;10.366;2023-04-01T17:39:20;18.00;65.00
44477;DHT22;30180;44.788;10.366;2023-04-01T17:41:54;18.00;65.00
44477;DHT22;30180;44.788;10.366;2023-04-01T17:44:35;18.00;65.00